createdAt,value
2017-11-26T06:54:06.833Z,7.20
2017-11-26T06:56:33.308Z,11.73
2017-11-26T06:58:59.723Z,10.93
2017-11-26T07:01:26.133Z,13.90
2017-11-26T07:03:52.531Z,9.93
2017-11-26T07:06:18.941Z,8.37
2017-11-26T07:08:45.320Z,5.77
2017-11-26T07:11:12.522Z,10.10
2017-11-26T07:13:38.974Z,6.60
2017-11-26T07:16:05.345Z,6.57
2017-11-26T07:18:31.765Z,8.97
2017-11-26T07:20:58.398Z,6.83
2017-11-26T07:23:24.832Z,8.00
2017-11-26T07:25:51.349Z,6.43
2017-11-26T07:28:17.771Z,7.30
2017-11-26T07:30:44.177Z,5.50
2017-11-26T07:33:10.580Z,7.10
2017-11-26T07:35:36.950Z,10.13
2017-11-26T07:38:03.345Z,6.03
2017-11-26T07:40:30.508Z,5.83
2017-11-26T07:42:57.675Z,9.57
2017-11-26T07:45:24.132Z,10.73
2017-11-26T07:47:50.535Z,8.63
2017-11-26T07:50:16.936Z,8.60
2017-11-26T07:52:44.097Z,8.00
2017-11-26T07:55:10.555Z,7.90
2017-11-26T07:57:37.002Z,7.00
2017-11-26T08:00:04.204Z,10.23
2017-11-26T08:02:31.361Z,9.10
2017-11-26T08:04:58.529Z,7.63
2017-11-26T08:07:25.684Z,7.80
2017-11-26T08:09:52.112Z,11.97
2017-11-26T08:12:18.518Z,9.30
2017-11-26T08:14:45.668Z,9.97
2017-11-26T08:17:12.837Z,9.00
2017-11-26T08:19:39.982Z,7.37
2017-11-26T08:22:07.188Z,10.00
2017-11-26T08:24:33.575Z,6.83
2017-11-26T08:27:00.018Z,9.87
2017-11-26T08:29:26.397Z,7.77
2017-11-26T08:31:52.789Z,10.87
2017-11-26T08:34:19.209Z,8.63
2017-11-26T08:36:45.632Z,11.93
2017-11-26T08:39:13.481Z,9.00
2017-11-26T08:41:39.917Z,10.40
2017-11-26T08:44:07.107Z,8.93
2017-11-26T08:46:33.565Z,8.00
2017-11-26T08:49:00.552Z,20.07
2017-11-26T08:51:27.017Z,16.10
2017-11-26T08:53:53.565Z,8.47
2017-11-26T08:56:20.045Z,9.27
2017-11-26T08:58:47.253Z,8.57
2017-11-26T09:01:13.694Z,8.47
2017-11-26T09:03:40.160Z,65.17
2017-11-26T09:06:06.594Z,17.30
2017-11-26T09:08:36.821Z,14.13
2017-11-26T09:11:04.044Z,8.03
2017-11-26T09:13:30.456Z,10.83
2017-11-26T09:15:56.892Z,10.13
2017-11-26T09:18:23.346Z,13.43
2017-11-26T09:20:49.776Z,7.50
2017-11-26T09:23:16.265Z,9.10
2017-11-26T09:25:43.446Z,8.80
2017-11-26T09:28:09.912Z,13.23
2017-11-26T09:30:36.305Z,10.60
2017-11-26T09:33:02.740Z,10.33
2017-11-26T09:35:29.112Z,15.70
2017-11-26T09:37:55.502Z,8.77
2017-11-26T09:40:21.943Z,10.60
2017-11-26T09:42:48.368Z,12.77
2017-11-26T09:45:15.572Z,17.23
2017-11-26T09:47:42.743Z,15.73
2017-11-26T09:50:09.140Z,10.30
2017-11-26T09:52:36.096Z,15.33
2017-11-26T09:55:03.300Z,12.47
2017-11-26T09:57:29.684Z,9.03
2017-11-26T09:59:56.853Z,8.97
2017-11-26T10:02:23.241Z,11.00
2017-11-26T10:04:49.623Z,10.13
2017-11-26T10:07:16.025Z,11.30
2017-11-26T10:09:43.141Z,8.20
2017-11-26T10:12:09.515Z,9.97
2017-11-26T10:14:36.666Z,8.87
2017-11-26T10:17:03.791Z,9.00
2017-11-26T10:19:30.223Z,13.70
2017-11-26T10:21:56.964Z,8.83
2017-11-26T10:24:23.365Z,7.60
2017-11-26T10:26:49.762Z,9.40
2017-11-26T10:29:16.260Z,7.60
2017-11-26T10:31:42.692Z,8.67
2017-11-26T10:34:09.128Z,15.63
2017-11-26T10:36:35.595Z,7.93
2017-11-26T10:39:02.030Z,6.40
2017-11-26T10:41:28.462Z,12.60
2017-11-26T10:43:54.924Z,17.97
2017-11-26T10:46:21.408Z,12.27
2017-11-26T10:48:48.581Z,8.83
2017-11-26T10:51:15.852Z,9.70
2017-11-26T10:53:42.292Z,10.23
2017-11-26T10:56:08.797Z,10.00
2017-11-26T10:58:35.233Z,8.07
2017-11-26T11:01:01.677Z,8.20
2017-11-26T11:03:28.115Z,5.63
2017-11-26T11:05:54.565Z,8.23
2017-11-26T11:08:21.004Z,5.43
2017-11-26T11:10:48.217Z,5.07
2017-11-26T11:13:14.903Z,8.03
2017-11-26T11:15:41.343Z,7.10
2017-11-26T11:18:07.791Z,7.03
2017-11-26T11:20:35.016Z,13.30
2017-11-26T11:23:01.676Z,7.73
2017-11-26T11:25:28.122Z,7.60
2017-11-26T11:27:55.259Z,6.90
2017-11-26T11:30:22.397Z,6.30
2017-11-26T11:32:48.804Z,7.17
2017-11-26T11:35:15.204Z,13.53
2017-11-26T11:37:41.599Z,10.40
2017-11-26T11:40:08.030Z,8.40
2017-11-26T11:42:34.444Z,6.93
2017-11-26T11:45:00.862Z,5.70
2017-11-26T11:47:27.263Z,4.50
2017-11-26T11:49:54.548Z,6.93
2017-11-26T11:52:21.014Z,4.83
2017-11-26T11:54:48.240Z,7.70
2017-11-26T11:57:14.709Z,5.23
2017-11-26T11:59:41.148Z,5.10
2017-11-26T12:02:08.340Z,6.80
2017-11-26T12:04:34.831Z,6.63
2017-11-26T12:07:02.009Z,5.17
2017-11-26T12:09:28.462Z,5.30
2017-11-26T12:11:54.891Z,3.80
2017-11-26T12:14:21.362Z,3.60
2017-11-26T12:16:47.872Z,4.33
2017-11-26T12:19:14.349Z,4.63
2017-11-26T12:21:41.551Z,4.33
2017-11-26T12:24:08.116Z,8.00
2017-11-26T12:26:34.666Z,6.60
2017-11-26T12:29:01.151Z,4.77
2017-11-26T12:31:27.584Z,3.27
2017-11-26T12:33:54.040Z,11.43
2017-11-26T12:36:20.512Z,7.53
2017-11-26T12:38:47.686Z,3.50
2017-11-26T12:41:14.190Z,7.07
2017-11-26T12:43:41.397Z,4.23
2017-11-26T12:46:07.867Z,7.93
2017-11-26T12:48:35.054Z,7.93
2017-11-26T12:51:01.507Z,3.80
2017-11-26T12:53:28.000Z,9.40
2017-11-26T12:55:55.192Z,5.87
2017-11-26T12:58:21.645Z,2.77
2017-11-26T13:00:48.080Z,5.17
2017-11-26T13:03:14.513Z,4.83
2017-11-26T13:05:41.018Z,4.27
2017-11-26T13:08:07.506Z,4.30
2017-11-26T13:10:34.717Z,5.17
2017-11-26T13:13:01.148Z,5.00
2017-11-26T13:15:27.656Z,3.33
2017-11-26T13:17:54.172Z,7.20
2017-11-26T13:20:20.662Z,7.83
2017-11-26T13:22:47.185Z,3.23
2017-11-26T13:25:13.702Z,8.93
2017-11-26T13:27:40.157Z,2.80
2017-11-26T13:30:06.631Z,3.03
2017-11-26T13:32:33.945Z,3.30
2017-11-26T13:35:00.411Z,2.60
2017-11-26T13:37:26.849Z,8.23
2017-11-26T13:39:54.788Z,5.00
2017-11-26T13:42:21.285Z,2.57
2017-11-26T13:44:47.727Z,2.57
2017-11-26T13:47:14.203Z,2.93
2017-11-26T13:49:41.505Z,6.27
2017-11-26T13:52:07.957Z,2.87
2017-11-26T13:54:34.404Z,4.00
2017-11-26T13:57:00.866Z,3.20
2017-11-26T13:59:27.329Z,3.30
2017-11-26T14:01:53.804Z,4.00
2017-11-26T14:04:20.239Z,3.53
2017-11-26T14:06:46.680Z,13.70
2017-11-26T14:09:13.125Z,5.80
2017-11-26T14:11:40.330Z,6.30
2017-11-26T14:14:06.772Z,7.83
2017-11-26T14:16:33.264Z,5.70
2017-11-26T14:19:00.435Z,4.13
2017-11-26T14:21:26.904Z,4.07
2017-11-26T14:23:53.368Z,3.33
2017-11-26T14:26:19.831Z,9.00
2017-11-26T14:28:46.277Z,9.43
2017-11-26T14:31:13.457Z,4.90
2017-11-26T14:33:39.894Z,4.47
2017-11-26T14:36:06.342Z,6.53
2017-11-26T14:38:32.776Z,3.23
2017-11-26T14:40:59.240Z,6.10
2017-11-26T14:43:26.443Z,2.73
2017-11-26T14:45:52.869Z,3.13
2017-11-26T14:48:19.309Z,3.97
2017-11-26T14:50:45.745Z,3.37
2017-11-26T14:53:12.181Z,6.67
2017-11-26T14:55:38.612Z,4.93
2017-11-26T14:58:05.856Z,6.17
2017-11-26T15:00:32.301Z,5.80
2017-11-26T15:02:58.749Z,6.07
2017-11-26T15:05:25.197Z,2.93
2017-11-26T15:07:52.391Z,5.97
2017-11-26T15:10:18.827Z,3.40
2017-11-26T15:12:45.254Z,4.30
2017-11-26T15:15:11.696Z,6.50
2017-11-26T15:17:39.460Z,5.20
2017-11-26T15:20:05.994Z,5.93
2017-11-26T15:22:32.454Z,4.10
2017-11-26T15:24:58.903Z,8.27
2017-11-26T15:27:25.368Z,4.07
2017-11-26T15:29:51.802Z,5.30
2017-11-26T15:32:18.235Z,7.47
2017-11-26T15:34:44.709Z,8.60
2017-11-26T15:37:11.158Z,7.20
2017-11-26T15:39:37.577Z,7.27
2017-11-26T15:42:04.011Z,4.70
2017-11-26T15:44:31.216Z,3.50
2017-11-26T15:46:57.608Z,3.50
2017-11-26T15:49:24.119Z,3.40
2017-11-26T15:51:50.637Z,5.40
2017-11-26T15:54:17.135Z,6.67
2017-11-26T15:56:44.352Z,5.10
2017-11-26T15:59:10.786Z,14.80
2017-11-26T16:01:37.242Z,4.80
2017-11-26T16:04:03.761Z,4.80
2017-11-26T16:06:30.208Z,5.67
2017-11-26T16:08:56.645Z,7.33
2017-11-26T16:11:23.149Z,7.80
2017-11-26T16:13:49.622Z,9.70
2017-11-26T16:16:16.826Z,8.40
2017-11-26T16:18:43.252Z,7.03
2017-11-26T16:21:10.655Z,5.60
2017-11-26T16:23:37.098Z,6.70
2017-11-26T16:26:04.271Z,8.03
2017-11-26T16:28:30.760Z,5.47
2017-11-26T16:30:58.714Z,5.90
2017-11-26T16:33:26.157Z,6.90
2017-11-26T16:35:52.613Z,18.23
2017-11-26T16:38:19.887Z,5.60
2017-11-26T16:40:47.072Z,9.23
2017-11-26T16:43:13.532Z,9.90
2017-11-26T16:45:40.521Z,8.90
2017-11-26T16:48:07.672Z,6.93
2017-11-26T16:50:34.881Z,9.07
2017-11-26T16:53:01.382Z,18.53
2017-11-26T16:55:27.817Z,20.10
2017-11-26T16:57:54.252Z,14.33
2017-11-26T17:00:20.666Z,14.77
2017-11-26T17:02:47.144Z,8.13
2017-11-26T17:05:13.689Z,11.50
2017-11-26T17:07:40.193Z,9.23
2017-11-26T17:10:06.640Z,45.63
2017-11-26T17:12:33.101Z,24.77
2017-11-26T17:14:59.549Z,19.07
2017-11-26T17:17:26.046Z,14.13
2017-11-26T17:19:52.550Z,22.13
2017-11-26T17:22:19.161Z,12.53
2017-11-26T17:24:46.357Z,8.17
2017-11-26T17:27:13.121Z,7.57
2017-11-26T17:29:39.608Z,7.43
2017-11-26T17:32:06.048Z,6.87
2017-11-26T17:34:32.487Z,7.13
2017-11-26T17:36:59.061Z,8.30
2017-11-26T17:39:25.489Z,7.37
2017-11-26T17:41:51.928Z,8.67
2017-11-26T17:44:19.197Z,13.17
2017-11-26T17:46:46.408Z,8.47
2017-11-26T17:49:12.869Z,9.13
2017-11-26T17:51:39.355Z,10.70
2017-11-26T17:54:05.779Z,9.27
2017-11-26T17:56:32.197Z,9.23
2017-11-26T17:58:59.373Z,10.20
2017-11-26T18:01:25.800Z,7.03
2017-11-26T18:03:52.194Z,8.83
2017-11-26T18:06:18.612Z,11.23
2017-11-26T18:08:45.096Z,7.13
2017-11-26T18:11:11.538Z,11.33
2017-11-26T18:13:37.978Z,8.50
2017-11-26T18:16:04.402Z,11.30
2017-11-26T18:18:30.818Z,7.40
2017-11-26T18:20:57.989Z,8.43
2017-11-26T18:23:24.392Z,8.40
2017-11-26T18:25:51.593Z,9.53
2017-11-26T18:28:18.107Z,9.27
2017-11-26T18:30:44.543Z,7.60
2017-11-26T18:33:10.942Z,8.67
2017-11-26T18:35:38.094Z,9.83
2017-11-26T18:38:05.214Z,8.53
2017-11-26T18:40:31.675Z,8.47
2017-11-26T18:42:58.080Z,9.43
2017-11-26T18:45:24.544Z,13.53
2017-11-26T18:47:51.727Z,18.33
2017-11-26T18:50:18.105Z,82.20
2017-11-26T18:52:45.956Z,170.13
2017-11-26T18:55:12.389Z,18.00
2017-11-26T18:57:38.825Z,17.83
2017-11-26T19:00:05.237Z,12.43
2017-11-26T19:02:31.696Z,12.83
2017-11-26T19:04:58.118Z,17.33
2017-11-26T19:07:24.556Z,16.20
2017-11-26T19:09:50.952Z,13.67
2017-11-26T19:12:17.397Z,16.63
2017-11-26T19:14:43.860Z,13.50
2017-11-26T19:17:10.319Z,11.90
2017-11-26T19:19:37.501Z,9.53
2017-11-26T19:22:03.923Z,14.30
2017-11-26T19:24:30.530Z,9.67
2017-11-26T19:26:57.701Z,10.63
2017-11-26T19:29:24.855Z,9.47
2017-11-26T19:31:51.337Z,18.40
2017-11-26T19:34:18.795Z,18.17
2017-11-26T19:36:45.231Z,21.07
2017-11-26T19:39:11.648Z,40.17
2017-11-26T19:41:38.520Z,35.10
2017-11-26T19:44:05.015Z,31.23
2017-11-26T19:46:31.539Z,24.30
2017-11-26T19:48:58.003Z,21.40
2017-11-26T19:51:24.483Z,15.30
2017-11-26T19:53:51.002Z,16.23
2017-11-26T19:56:18.229Z,14.53
2017-11-26T19:58:45.472Z,14.60
2017-11-26T20:01:11.895Z,16.05
2017-11-26T20:03:38.339Z,14.32
2017-11-26T20:06:04.764Z,12.33
2017-11-26T20:08:31.231Z,16.77
2017-11-26T20:10:58.420Z,17.73
2017-11-26T20:13:24.860Z,15.10
2017-11-26T20:15:51.296Z,15.70
2017-11-26T20:18:17.704Z,16.90
2017-11-26T20:20:44.154Z,21.60
2017-11-26T20:23:10.582Z,11.50
2017-11-26T20:25:36.977Z,14.20
2017-11-26T20:28:04.166Z,11.80
2017-11-26T20:30:30.587Z,23.63
2017-11-26T20:32:57.000Z,13.53
2017-11-26T20:35:24.186Z,13.67
2017-11-26T20:37:51.580Z,12.80
2017-11-26T20:40:18.014Z,7.27
2017-11-26T20:42:44.427Z,14.73
2017-11-26T20:45:10.876Z,7.75
2017-11-26T20:47:37.284Z,11.07
2017-11-26T20:50:03.667Z,9.10
2017-11-26T20:52:30.837Z,9.10
2017-11-26T20:54:57.250Z,8.40
2017-11-26T20:57:24.389Z,6.47
2017-11-26T20:59:50.787Z,7.10
2017-11-26T21:02:17.172Z,7.40
2017-11-26T21:04:43.576Z,6.50
2017-11-26T21:07:09.980Z,6.90
2017-11-26T21:09:36.407Z,7.67
2017-11-26T21:12:02.823Z,29.30
2017-11-26T21:14:29.279Z,51.50
2017-11-26T21:16:55.704Z,389.60
2017-11-26T21:19:22.153Z,291.90
2017-11-26T21:21:48.608Z,141.93
2017-11-26T21:24:15.761Z,159.67
2017-11-26T21:26:42.187Z,120.50
2017-11-26T21:29:09.389Z,182.57
2017-11-26T21:31:35.802Z,126.87
2017-11-26T21:34:02.201Z,41.27
2017-11-26T21:36:28.576Z,50.50
2017-11-26T21:38:54.981Z,34.73
2017-11-26T21:41:22.125Z,12.93
2017-11-26T21:43:48.518Z,42.53
2017-11-26T21:46:15.125Z,26.20
2017-11-26T21:48:41.513Z,13.03
2017-11-26T21:51:07.905Z,5.67
2017-11-26T21:53:34.352Z,8.63
2017-11-26T21:56:00.758Z,8.87
2017-11-26T21:58:27.153Z,7.17
2017-11-26T22:00:53.566Z,11.30
2017-11-26T22:03:19.982Z,7.23
2017-11-26T22:05:59.810Z,13.07
2017-11-26T22:08:39.329Z,6.07
2017-11-26T22:11:06.486Z,5.53
2017-11-26T22:13:32.893Z,11.13
2017-11-26T22:15:59.379Z,11.87
2017-11-26T22:18:25.763Z,8.33
2017-11-26T22:20:52.909Z,6.80
2017-11-26T22:23:20.112Z,4.17
2017-11-26T22:25:46.516Z,5.90
2017-11-26T22:28:12.917Z,8.23
2017-11-26T22:30:40.082Z,10.70
2017-11-26T22:33:07.248Z,9.30
2017-11-26T22:35:33.619Z,9.30
2017-11-26T22:38:00.016Z,6.63
2017-11-26T22:40:26.441Z,6.60
2017-11-26T22:42:52.836Z,8.73
2017-11-26T22:45:19.232Z,6.90
2017-11-26T22:47:45.617Z,8.13
2017-11-26T22:50:12.728Z,6.77
2017-11-26T22:52:39.133Z,7.63
2017-11-26T22:55:05.532Z,6.00
2017-11-26T22:57:32.665Z,6.60
2017-11-26T22:59:59.092Z,6.73
2017-11-26T23:02:25.492Z,7.07
2017-11-26T23:04:51.901Z,9.13
2017-11-26T23:07:18.304Z,5.30
2017-11-26T23:09:45.444Z,7.23
2017-11-26T23:12:11.883Z,7.87
2017-11-26T23:14:38.316Z,10.00
2017-11-26T23:17:05.460Z,6.40
2017-11-26T23:19:32.620Z,6.30
2017-11-26T23:21:59.788Z,8.10
2017-11-26T23:24:26.206Z,5.67
2017-11-26T23:26:53.345Z,5.03
2017-11-26T23:29:20.501Z,5.17
2017-11-26T23:31:46.915Z,15.30
2017-11-26T23:34:13.320Z,8.43
2017-11-26T23:36:39.725Z,5.87
2017-11-26T23:39:06.914Z,5.50
2017-11-26T23:41:34.041Z,9.90
2017-11-26T23:44:00.432Z,6.80
2017-11-26T23:46:27.590Z,6.90
2017-11-26T23:48:54.717Z,11.17
2017-11-26T23:51:21.117Z,7.20
2017-11-26T23:53:47.589Z,5.73
2017-11-26T23:56:14.742Z,5.20
2017-11-26T23:58:41.182Z,7.73
